Weather observations for the past three days for
Jack Barstow Airport
Metric (Imperial)
Date Time (edt) Wind (kph) Vis. (km) Weather Sky Cond. Temperature (ºC) Relative Humidity Wind Chill (°C) Heat Index (°C) Pressure Precipitation (cm)
Air Dwpt 6 hour altimeter (cm) sea level (mb) 1 hr 3 hr 6 hr
Max. Min.
06 10:15 NW 9 16.09 Fair CLR 8 -2 50% 7 75.95 0.0
06 09:56 W 9 16.09 Fair CLR 7 -2 53% 5 75.97 0.0
06 09:35 Vrbl 6 16.09 A Few Clouds FEW031 6 -2 57% 75.97 0.0
06 09:15 Vrbl 4 16.09 Mostly Cloudy BKN031 5 -2 61% 75.95 0.0
06 08:55 Vrbl 6 16.09 Overcast OVC031 5 -2 61% 75.95 0.0
06 08:35 N 11 16.09 Overcast OVC031 5 -3 57% 3 75.95 0.0
06 08:15 N 7 16.09 Overcast OVC031 4 -3 61% 2 75.9 0.0
06 07:55 NE 6 16.09 Overcast OVC031 4 -2 5.2 2.7 65% 75.9 0.0
06 07:36 Vrbl 6 16.09 Overcast OVC031 4 -2 65% 75.9 0.0
06 07:15 Vrbl 2 16.09 Overcast OVC029 3 -2 70% 75.9 0.0
06 06:55 Vrbl 6 16.09 Overcast OVC027 3 -2 70% 75.87 0.0
06 06:35 N 6 16.09 Overcast OVC025 3 -2 70% 75.84 0.0
06 06:15 N 7 16.09 Overcast OVC023 3 -2 70% 1 75.82 0.0
06 05:55 N 7 16.09 Overcast OVC021 3 -2 70% 1 75.79 0.0
06 05:35 NE 13 16.09 Mostly Cloudy BKN019 3 -2 70% 0 75.77 0.0
06 05:16 Vrbl 7 16.09 A Few Clouds FEW019 4 -1 70% 2 75.77 0.0
06 04:55 NE 9 16.09 Fair CLR 4 -1 70% 2 75.74 0.0
06 04:35 NE 7 16.09 Fair CLR 4 0 75% 2 75.74 0.0
06 04:15 NE 7 16.09 Fair CLR 4 0 75% 2 75.74 0.0
06 03:55 Vrbl 6 16.09 Fair CLR 4 0 75% 75.72 0.0
06 03:35 Vrbl 6 16.09 Fair CLR 4 1 81% 75.72 0.0
06 03:15 N 4 16.09 Fair CLR 4 1 81% 75.72 0.0
06 02:56 Vrbl 2 16.09 Fair CLR 4 1 81% 75.72 0.0
06 02:35 Vrbl 2 16.09 Fair CLR 4 1 81% 75.69 0.0
06 02:15 SW 2 16.09 Fair CLR 4 1 81% 75.74 0.0
06 01:55 Vrbl 4 16.09 Fair CLR 5 1 13.1 4.5 76% 75.72 0.0
06 01:35 Vrbl 2 16.09 Fair CLR 5 0 70% 75.72 0.0
06 01:15 N 6 16.09 Fair CLR 5 1 76% 75.69 0.0
06 00:55 SW 2 16.09 Fair CLR 6 1 71% 75.69 0.0
06 00:36 Calm 16.09 Fair CLR 6 0 66% 75.67 0.0
06 00:15 E 4 16.09 Fair CLR 6 0 66% 75.69 0.0
05 23:55 E 4 16.09 Fair CLR 6 0 66% 75.69 0.0
05 23:35 E 7 16.09 Fair CLR 6 0 66% 5 75.67 0.0
05 23:15 NE 11 16.09 Fair CLR 7 -1 57% 5 75.67 0.0
05 22:55 N 6 16.09 Fair CLR 9 -3 43% 75.64 0.0
05 22:35 NW 9 16.09 Fair CLR 9 -2 46% 8 75.64 0.0
05 22:16 W 7 16.09 Fair CLR 10 -3 40% 9 75.62 0.0
05 21:55 W 9 16.09 Fair CLR 10 -3 40% 9 75.62 0.0
05 21:35 W 9 16.09 Fair CLR 11 -3 38% 75.59 0.0
05 21:15 NW 11 16.09 Fair CLR 11 -3 38% 75.57 0.0
05 20:55 W 15 16.09 Fair CLR 11 -3 38% 75.57 0.0
05 20:35 W 13 16.09 Fair CLR 12 -3 35% 75.54 0.0
05 20:15 NW 17 16.09 Fair CLR 12 -3 35% 75.54 0.0
05 19:56 W 17 G 26 16.09 Fair CLR 13 -3 33% 75.51 0.0
05 19:35 W 17 16.09 Fair CLR 13 -5 28% 75.49 0.0
05 19:15 W 17 16.09 Fair CLR 14 -4 29% 75.49 0.0
05 18:55 W 17 16.09 Fair CLR 14 -4 29% 75.49 0.0
05 18:35 NW 17 G 26 16.09 Fair CLR 14 -4 29% 75.46 0.0
05 18:15 NW 20 G 31 16.09 Fair CLR 14 -5 27% 75.49 0.0
05 17:55 W 17 16.09 Fair CLR 15 -4 27% 75.46 0.0
05 17:36 NW 17 G 28 16.09 Fair CLR 15 -5 25% 75.46 0.0
05 17:15 W 17 G 31 16.09 Fair CLR 16 -5 23% 75.46 0.0
05 16:55 NW 15 G 39 16.09 Fair CLR 15 -5 25% 75.46 0.0
05 16:35 W 24 G 37 16.09 Fair CLR 16 -5 23% 75.46 0.0
05 16:15 NW 24 G 33 16.09 Fair CLR 16 -5 23% 75.46 0.0
05 15:55 NW 24 16.09 Fair CLR 16 -4 25% 75.44 0.0
05 15:35 W 22 G 31 16.09 Fair CLR 16 -5 23% 75.44 0.0
05 15:16 SW 15 G 26 16.09 Fair CLR 15 -4 27% 75.44 0.0
05 14:55 W 19 G 30 16.09 Fair CLR 16 -4 25% 75.46 0.0
05 14:35 NW 20 G 33 16.09 A Few Clouds FEW070 16 -3 27% 75.44 0.0
05 14:15 NW 20 G 44 16.09 A Few Clouds FEW070 15 -2 31% 75.41 0.0
05 13:55 SW 13 G 31 16.09 Fair CLR 15 -1 15.4 9.9 34% 75.41 0.0
05 13:35 W 20 G 31 16.09 Partly Cloudy SCT050 SCT065 15 0 36% 75.41 0.0
05 13:15 W 19 16.09 Mostly Cloudy BKN050 BKN065 14 0 39% 75.41 0.0
05 12:56 W 26 G 33 16.09 Mostly Cloudy BKN050 BKN065 13 0 41% 75.41 0.0
05 12:35 SW 19 G 31 16.09 Mostly Cloudy BKN050 14 1 41% 75.41 0.0
05 12:15 W 20 G 26 16.09 Mostly Cloudy BKN050 BKN065 14 1 41% 75.44 0.0
05 11:55 W 15 16.09 Mostly Cloudy BKN050 BKN055 13 0 41% 75.44 0.0
05 11:35 W 13 16.09 Partly Cloudy SCT048 SCT055 14 1 41% 75.46 0.0
05 11:15 SW 13 16.09 A Few Clouds FEW050 12 0 44% 75.44 0.0
05 10:55 Vrbl 11 16.09 A Few Clouds FEW050 12 0 44% 75.44 0.0
05 10:36 W 11 16.09 Partly Cloudy SCT048 11 0 47% 75.44 0.0
05 10:15 W 7 16.09 Mostly Cloudy BKN048 11 0 47% 75.41 0.0
05 09:55 W 6 16.09 Overcast OVC048 11 -1 44% 75.41 0.0
05 09:35 NW 13 16.09 Overcast OVC046 11 0 47% 75.36 0.0
05 09:15 W 9 16.09 Overcast OVC044 10 0 50% 9 75.39 0.0
05 08:55 N 11 16.09 Overcast OVC042 10 0 50% 9 75.34 0.0
05 08:35 NW 13 16.09 Overcast OVC038 10 1 54% 8 75.34 0.0
05 08:16 NW 7 16.09 Overcast OVC038 10 2 58% 9 75.34 0.0
05 07:55 NW 7 16.09 Partly Cloudy SCT038 10 3 12.1 7.3 62% 9 75.31 0.0
05 07:35 W 4 16.09 A Few Clouds FEW036 8 5 82% 75.29 0.0
05 07:15 NW 4 16.09 Mostly Cloudy BKN034 8 4 76% 75.26 0.0
05 06:55 NW 6 16.09 Overcast OVC032 8 4 76% 75.23 0.0
05 06:35 NW 4 16.09 Overcast OVC030 9 4 71% 75.21 0.0
05 06:15 N 6 16.09 Overcast OVC030 9 3 66% 75.18 0.0
05 05:56 N 6 16.09 Overcast OVC028 9 3 66% 75.16 0.0
05 05:35 N 4 16.09 Overcast OVC026 9 4 71% 75.13 0.0
05 05:15 N 7 16.09 Overcast SCT020 OVC024 10 4 67% 9 75.11 0.0
05 04:55 N 6 16.09 Mostly Cloudy SCT020 BKN100 BKN120 10 7 82% 75.08 0.0
05 04:35 NE 7 16.09 A Few Clouds FEW100 10 7 82% 9 75.06 0.0
05 04:15 NE 15 16.09 Mostly Cloudy FEW020 FEW027 BKN100 11 8 82% 74.98 0.0
05 03:55 W 6 16.09 Overcast OVC100 12 9 82% 74.96 0.0
05 03:36 W 6 16.09 Overcast OVC100 11 9 88% 74.93 0.0
05 03:15 Vrbl 2 1.21 Fog/Mist OVC110 10 9 94% 74.88 0.0
05 02:55 NW 4 0.80 Fog VV005 11 10 94% 74.9 0.0
05 02:35 Calm 0.40 Fog VV005 11 9 88% 74.9 0.0
05 02:15 E 2 2.82 Fog/Mist CLR 11 10 94% 74.88 0.0
05 01:55 Vrbl 2 16.09 Fair CLR 11 9 22.6 11 88% 74.88 0.0
05 01:35 W 4 16.09 A Few Clouds FEW110 12 10 88% 74.88 0.0
05 01:16 W 6 16.09 Fair CLR 12 10 88% 74.85 0.0
05 00:55 W 6 16.09 A Few Clouds FEW110 13 10 82% 74.83 0.0
05 00:35 W 7 16.09 Partly Cloudy FEW060 SCT100 13 10 82% 74.83 0.0
05 00:15 W 6 16.09 Fair CLR 12 10 88% 74.83 0.0
04 23:55 W 6 16.09 A Few Clouds FEW085 13 10 82% 74.8 0.0 0.38
04 23:35 W 11 16.09 Partly Cloudy FEW060 FEW075 SCT110 13 10 82% 74.78 0.0
04 23:15 Vrbl 4 14.48 Light Rain BKN060 BKN070 OVC110 14 10 77% 74.75 0.0
04 22:56 NW 44 G 59 16.09 Rain and Windy OVC060 19 7 46% 74.9 0.0
04 22:35 NW 11 16.09 Mostly Cloudy SCT070 BKN100 BKN120 19 5 40% 74.73 0.0
04 22:15 S 11 16.09 Partly Cloudy SCT110 20 5 38% 74.68 0.0
04 21:55 S 11 16.09 Fair CLR 19 4 37% 74.7 0.0
04 21:35 S 13 16.09 Fair CLR 20 4 35% 74.68 0.0
04 21:15 S 13 16.09 Fair CLR 20 4 35% 74.68 0.0
04 20:55 S 11 16.09 Fair CLR 20 3 33% 74.68 0.0
04 20:36 SW 17 16.09 Fair CLR 21 3 31% 74.68 0.0
04 20:15 SW 20 16.09 Fair CLR 22 3 29% 74.68 0.0
04 19:55 SW 19 G 35 16.09 Fair CLR 22 3 24.9 22.6 29% 74.68 0.0
04 19:35 SW 28 G 33 16.09 Fair CLR 23 2 25% 74.7 0.0
04 19:15 SW 26 16.09 Fair CLR 23 2 25% 74.73 0.0
04 18:55 SW 28 G 44 16.09 Fair CLR 23 1 23% 74.75 0.0
04 18:35 SW 26 G 39 16.09 Fair CLR 24 2 24% 25 74.78 0.0
04 18:16 SW 30 G 48 16.09 Fair CLR 24 1 22% 25 74.78 0.0
04 17:55 SW 22 G 44 16.09 Fair CLR 24 0 21% 25 74.78 0.0
04 17:35 SW 33 G 54 16.09 Fair and Breezy CLR 24 0 21% 25 74.8 0.0
04 17:15 SW 31 G 44 16.09 Fair CLR 24 -1 19% 24 74.8 0.0
04 16:55 W 26 G 39 16.09 Fair CLR 24 0 21% 25 74.8 0.0
04 16:35 SW 33 G 52 16.09 Fair and Breezy CLR 24 -1 19% 24 74.8 0.0
04 16:15 W 35 G 52 16.09 Fair and Breezy CLR 24 -1 19% 24 74.83 0.0
04 15:56 W 35 G 52 16.09 Fair and Breezy CLR 24 -1 19% 24 74.83 0.0
04 15:35 SW 37 G 50 16.09 Fair and Breezy CLR 24 -1 19% 24 74.83 0.0
04 15:15 SW 37 G 52 16.09 Fair and Breezy CLR 24 -1 19% 24 74.85 0.0
04 14:55 SW 41 G 50 16.09 Fair and Breezy CLR 25 1 21% 25 74.85 0.0
04 14:35 SW 33 G 46 16.09 Fair and Breezy CLR 24 0 21% 25 74.85 0.0
04 14:15 SW 33 G 48 16.09 Fair and Breezy CLR 25 1 21% 25 74.88 0.0
04 13:55 SW 33 G 54 16.09 Fair and Breezy CLR 24 0 24.3 10.2 21% 25 74.88 0.0
04 13:36 SW 31 G 50 16.09 Fair CLR 24 2 24% 25 74.9 0.0
04 13:15 SW 33 G 43 16.09 Fair and Breezy CLR 23 3 27% 74.93 0.0
04 12:55 SW 43 G 50 16.09 Fair and Windy CLR 23 3 27% 74.93 0.0
04 12:35 SW 30 G 41 16.09 Fair CLR 23 5 31% 74.98 0.0
04 12:15 SW 26 G 43 16.09 Fair CLR 22 5 33% 75.01 0.0
04 11:55 SW 26 G 37 16.09 Fair CLR 21 6 38% 75.03 0.0
04 11:35 SW 22 G 30 16.09 Fair CLR 20 6 40% 75.06 0.0
04 11:16 SW 26 16.09 Fair CLR 19 6 43% 75.08 0.0
04 10:55 SW 26 16.09 Fair CLR 18 6 46% 75.11 0.0
04 10:35 SW 20 G 31 16.09 Fair CLR 17 6 49% 75.13 0.0
04 10:15 SW 20 16.09 Fair CLR 17 7 52% 75.11 0.0
04 09:55 SW 17 16.09 Fair CLR 16 6 52% 75.13 0.0
04 09:35 SW 17 16.09 Fair CLR 15 7 59% 75.13 0.0
04 09:15 SW 20 16.09 Fair CLR 14 7 63% 75.16 0.0
04 08:56 SW 20 G 28 16.09 Fair CLR 13 6 63% 75.16 0.0
04 08:35 SW 15 16.09 Fair CLR 12 6 67% 75.16 0.0
04 08:15 SW 13 16.09 Fair CLR 12 6 67% 75.16 0.0
04 07:55 S 13 16.09 Fair CLR 10 6 10.2 6.2 76% 8 75.18 0.0
04 07:35 S 7 16.09 Fair CLR 9 5 76% 8 75.18 0.0
04 07:15 S 6 16.09 Fair CLR 8 5 82% 75.16 0.0
04 06:55 S 6 16.09 Fair CLR 8 5 82% 75.16 0.0
04 06:36 S 7 16.09 Fair CLR 8 4 76% 7 75.16 0.0
04 06:15 S 7 16.09 Fair CLR 8 4 76% 7 75.18 0.0
04 05:55 S 4 16.09 Fair CLR 7 4 81% 75.18 0.0
04 05:35 S 6 16.09 Fair CLR 7 4 81% 75.21 0.0
04 05:15 S 6 16.09 Fair CLR 7 4 81% 75.21 0.0
04 04:55 SW 6 16.09 Fair CLR 9 4 71% 75.23 0.0
04 04:35 SW 6 16.09 Fair CLR 9 4 71% 75.23 0.0
04 04:16 SW 11 16.09 Fair CLR 9 4 71% 8 75.23 0.0
04 03:55 SW 7 16.09 Fair CLR 9 4 71% 8 75.23 0.0
04 03:35 SW 9 16.09 Fair CLR 9 4 71% 8 75.23 0.0
04 03:15 SW 11 16.09 Fair CLR 9 4 71% 8 75.26 0.0
04 02:35 SW 13 16.09 Fair CLR 10 4 67% 8 75.29 0.0
04 02:15 S 17 16.09 Fair CLR 9 4 71% 7 75.31 0.0
04 01:56 S 15 16.09 Fair CLR 10 4 67% 8 75.31 0.0
04 01:35 SW 11 16.09 Fair CLR 10 4 67% 9 75.34 0.0
04 01:15 S 15 16.09 Partly Cloudy SCT085 SCT110 10 5 71% 8 75.36 0.0
04 00:55 S 15 G 26 16.09 Light Rain FEW021 FEW075 BKN100 10 5 71% 8 75.39 0.0
04 00:35 S 13 G 30 16.09 Partly Cloudy SCT060 SCT100 SCT120 11 4 62% 75.41 0.0
04 00:15 S 19 16.09 Light Rain OVC065 11 4 62% 75.41 0.0
03 23:55 NW 9 16.09 Mostly Cloudy BKN065 11 4 62% 75.49 0.0
03 23:36 SW 17 G 26 16.09 Partly Cloudy SCT075 11 3 58% 75.44 0.0
03 23:15 SW 17 16.09 A Few Clouds FEW090 11 3 58% 75.44 0.0
03 22:55 SW 15 16.09 Fair CLR 11 3 58% 75.44 0.0
03 22:35 S 20 16.09 Fair CLR 11 3 58% 75.44 0.0
03 22:15 SW 17 16.09 Fair CLR 11 3 58% 75.46 0.0
03 21:55 SW 19 16.09 Fair CLR 12 3 54% 75.46 0.0
03 21:35 SW 15 G 28 16.09 A Few Clouds FEW060 12 3 54% 75.46 0.0
03 21:16 SW 22 G 43 16.09 Partly Cloudy SCT060 13 3 51% 75.46 0.0
03 20:55 SW 20 G 39 16.09 Mostly Cloudy BKN060 13 3 51% 75.46 0.0
03 20:35 SW 28 G 35 16.09 Partly Cloudy SCT060 13 3 51% 75.46 0.0
03 20:15 SW 19 16.09 Fair CLR 14 3 48% 75.46 0.0
03 19:55 SW 24 G 41 16.09 Fair CLR 14 3 18.6 14.3 48% 75.44 0.0
03 19:35 SW 37 G 48 16.09 Fair and Breezy CLR 15 3 45% 75.46 0.0
03 19:15 SW 33 G 48 16.09 Fair and Breezy CLR 15 3 45% 75.46 0.0
03 18:56 SW 31 G 48 16.09 Fair CLR 15 3 45% 75.46 0.0
03 18:35 SW 22 G 35 16.09 Partly Cloudy SCT080 15 3 45% 75.49 0.0
03 18:15 SW 20 G 39 16.09 Overcast OVC080 15 3 45% 75.51 0.0
03 17:55 SW 41 G 52 16.09 Overcast and Breezy FEW049 SCT065 OVC080 14 3 48% 75.51 0.0
03 17:35 W 35 G 54 16.09 Overcast and Breezy SCT049 OVC075 15 3 45% 75.51 0.0
03 17:15 SW 43 G 56 16.09 Overcast and Windy BKN055 BKN065 OVC085 16 3 42% 75.49 0.0
03 16:55 SW 44 G 57 16.09 Mostly Cloudy and Windy BKN065 BKN075 BKN085 17 2 37% 75.49 0.0
03 16:36 SW 37 G 46 16.09 Mostly Cloudy and Breezy BKN065 18 2 34% 75.49 0.0
03 16:15 SW 41 G 52 16.09 A Few Clouds and Breezy FEW065 18 2 34% 75.49 0.0
03 15:55 W 28 G 43 16.09 Partly Cloudy SCT065 SCT090 18 2 34% 75.51 0.0
03 15:35 W 41 G 48 16.09 Partly Cloudy and Breezy SCT090 18 2 34% 75.51 0.0
03 15:15 W 37 G 54 16.09 Mostly Cloudy and Breezy BKN090 17 3 39% 75.54 0.0
03 14:55 W 30 G 48 16.09 Mostly Cloudy SCT055 SCT070 BKN090 17 3 39% 75.57 0.0
03 14:35 SW 30 G 41 16.09 Mostly Cloudy BKN055 BKN090 BKN110 17 3 39% 75.57 0.0
03 14:16 SW 37 G 46 16.09 Mostly Cloudy and Breezy SCT055 BKN100 18 3 37% 75.59 0.0
03 13:55 SW 22 G 43 16.09 Partly Cloudy SCT100 17 2 17.2 5.8 37% 75.59 0.0
03 13:35 SW 22 G 39 16.09 Partly Cloudy FEW060 SCT100 16 2 39% 75.62 0.0
03 13:15 SW 30 G 39 16.09 Mostly Cloudy BKN060 BKN080 15 1 39% 75.67 0.0
03 12:55 SW 17 G 35 16.09 Mostly Cloudy BKN070 BKN080 14 2 44% 75.69 0.0
03 12:35 SW 19 16.09 Overcast OVC055 14 2 44% 75.72 0.0
03 12:15 SW 11 16.09 Light Rain BKN050 OVC065 13 2 47% 75.72 0.0
03 11:56 SW 11 16.09 Overcast OVC055 13 1 44% 75.74 0.0
03 11:35 W 15 G 26 16.09 Overcast BKN060 OVC070 13 1 44% 75.77 0.0
03 11:15 SW 19 16.09 Overcast OVC070 12 0 44% 75.77 0.0
03 10:55 SW 22 16.09 Overcast OVC065 12 0 44% 75.77 0.0
Date Time (edt) Wind (kph) Vis. (km) Weather Sky Cond. Air Dwpt Max. Min. Relative Humidity Wind Chill (°C) Heat Index (°C) altimeter (cm) sea level (mb) 1 hr 3 hr 6 hr
6 hour
Temperature (ºC) Pressure Precipitation (cm)